createdAt,value
2022-10-19T00:00:23.401Z,1029.33
2022-10-19T00:01:26.289Z,1029.31
2022-10-19T00:02:29.500Z,1029.42
2022-10-19T00:04:14.344Z,1029.42
2022-10-19T00:05:17.003Z,1029.42
2022-10-19T00:06:19.711Z,1029.44
2022-10-19T00:07:54.409Z,1029.44
2022-10-19T00:08:57.054Z,1029.44
2022-10-19T00:10:00.210Z,1029.40
2022-10-19T00:11:34.631Z,1029.37
2022-10-19T00:12:37.595Z,1029.37
2022-10-19T00:13:40.578Z,1029.39
2022-10-19T00:15:15.095Z,1029.35
2022-10-19T00:16:22.563Z,1029.37
2022-10-19T00:17:25.287Z,1029.35
2022-10-19T00:19:00.198Z,1029.37
2022-10-19T00:20:02.773Z,1029.35
2022-10-19T00:21:05.665Z,1029.34
2022-10-19T00:22:40.951Z,1029.31
2022-10-19T00:23:43.806Z,1029.27
2022-10-19T00:24:46.667Z,1029.26
2022-10-19T00:26:21.577Z,1029.27
2022-10-19T00:27:24.353Z,1029.28
2022-10-19T00:28:27.149Z,1029.32
2022-10-19T00:30:02.716Z,1029.33
2022-10-19T00:31:05.469Z,1029.33
2022-10-19T00:32:08.135Z,1029.34
2022-10-19T00:33:42.647Z,1029.36
2022-10-19T00:34:45.358Z,1029.32
2022-10-19T00:35:48.096Z,1029.36
2022-10-19T00:37:22.842Z,1029.32
2022-10-19T00:38:25.602Z,1029.31
2022-10-19T00:39:28.389Z,1029.31
2022-10-19T00:41:03.090Z,1029.31
2022-10-19T00:42:05.800Z,1029.37
2022-10-19T00:43:08.686Z,1029.35
2022-10-19T00:44:43.142Z,1029.31
2022-10-19T00:45:46.110Z,1029.33
2022-10-19T00:46:49.002Z,1029.30
2022-10-19T00:48:23.557Z,1029.23
2022-10-19T00:49:26.353Z,1029.24
2022-10-19T00:50:29.211Z,1029.21
2022-10-19T00:52:03.850Z,1029.22
2022-10-19T00:53:06.658Z,1029.22
2022-10-19T00:54:09.504Z,1029.24
2022-10-19T00:55:44.051Z,1029.24
2022-10-19T00:56:46.923Z,1029.24
2022-10-19T00:59:24.594Z,1029.26
2022-10-19T01:00:23.909Z,1029.25
2022-10-19T01:01:26.991Z,1029.22
2022-10-19T01:02:29.953Z,1029.22
2022-10-19T01:04:05.241Z,1029.23
2022-10-19T01:05:08.003Z,1029.17
2022-10-19T01:06:10.742Z,1029.16
2022-10-19T01:07:45.824Z,1029.16
2022-10-19T01:08:48.544Z,1029.16
2022-10-19T01:09:51.309Z,1029.13
2022-10-19T01:11:25.913Z,1029.10
2022-10-19T01:12:28.602Z,1029.11
2022-10-19T01:13:31.431Z,1029.08
2022-10-19T01:15:06.037Z,1029.09
2022-10-19T01:16:08.890Z,1029.11
2022-10-19T01:17:11.614Z,1029.05
2022-10-19T01:18:46.287Z,1029.07
2022-10-19T01:19:49.177Z,1029.08
2022-10-19T01:20:52.155Z,1029.13
2022-10-19T01:22:26.679Z,1029.11
2022-10-19T01:23:29.358Z,1029.13
2022-10-19T01:24:33.951Z,1029.11
2022-10-19T01:26:10.717Z,1029.17
2022-10-19T01:27:13.542Z,1029.19
2022-10-19T01:28:16.874Z,1029.20
2022-10-19T01:29:52.240Z,1029.17
2022-10-19T01:30:54.982Z,1029.20
2022-10-19T01:31:57.958Z,1029.16
2022-10-19T01:33:32.503Z,1029.14
2022-10-19T01:34:35.889Z,1029.10
2022-10-19T01:35:38.636Z,1029.11
2022-10-19T01:37:13.127Z,1029.09
2022-10-19T01:38:15.915Z,1029.10
2022-10-19T01:39:18.783Z,1029.11
2022-10-19T01:40:53.731Z,1029.15
2022-10-19T01:41:56.636Z,1029.18
2022-10-19T01:43:00.603Z,1029.14
2022-10-19T01:44:35.487Z,1029.13
2022-10-19T01:45:38.247Z,1029.14
2022-10-19T01:46:41.119Z,1029.12
2022-10-19T01:48:16.045Z,1029.10
2022-10-19T01:49:18.659Z,1029.11
2022-10-19T01:50:21.308Z,1029.06
2022-10-19T01:51:56.092Z,1029.05
2022-10-19T01:52:58.931Z,1029.06
2022-10-19T01:54:01.844Z,1029.04
2022-10-19T01:55:36.413Z,1029.06
2022-10-19T01:56:39.161Z,1029.05
2022-10-19T01:57:41.786Z,1029.03
2022-10-19T01:59:16.415Z,1029.00
2022-10-19T02:00:23.392Z,1029.02
2022-10-19T02:01:26.046Z,1028.98
2022-10-19T02:02:28.913Z,1028.97
2022-10-19T02:04:03.984Z,1028.94
2022-10-19T02:05:06.610Z,1028.95
2022-10-19T02:06:09.400Z,1028.93
2022-10-19T02:07:43.850Z,1028.96
2022-10-19T02:08:46.547Z,1028.91
2022-10-19T02:09:49.416Z,1028.95
2022-10-19T02:11:24.050Z,1028.92
2022-10-19T02:12:31.860Z,1028.85
2022-10-19T02:13:35.618Z,1028.86
2022-10-19T02:15:10.160Z,1028.88
2022-10-19T02:16:12.894Z,1028.87
2022-10-19T02:17:15.769Z,1028.88
2022-10-19T02:18:50.256Z,1028.87
2022-10-19T02:19:52.911Z,1028.88
2022-10-19T02:20:55.650Z,1028.84
2022-10-19T02:22:30.925Z,1028.84
2022-10-19T02:23:34.071Z,1028.80
2022-10-19T02:24:40.244Z,1028.80
2022-10-19T02:26:14.959Z,1028.84
2022-10-19T02:27:17.778Z,1028.80
2022-10-19T02:28:20.669Z,1028.83
2022-10-19T02:29:55.425Z,1028.79
2022-10-19T02:30:58.126Z,1028.80
2022-10-19T02:32:00.936Z,1028.81
2022-10-19T02:33:35.626Z,1028.80
2022-10-19T02:34:38.300Z,1028.81
2022-10-19T02:35:40.953Z,1028.75
2022-10-19T02:37:15.542Z,1028.74
2022-10-19T02:38:22.684Z,1028.73
2022-10-19T02:39:25.464Z,1028.75
2022-10-19T02:41:00.259Z,1028.75
2022-10-19T02:42:02.991Z,1028.80
2022-10-19T02:43:05.668Z,1028.79
2022-10-19T02:44:40.107Z,1028.82
2022-10-19T02:45:42.784Z,1028.86
2022-10-19T02:46:45.749Z,1028.86
2022-10-19T02:48:20.943Z,1028.83
2022-10-19T02:49:23.872Z,1028.86
2022-10-19T02:50:26.553Z,1028.84
2022-10-19T02:52:01.165Z,1028.80
2022-10-19T02:53:04.030Z,1028.80
2022-10-19T02:54:10.992Z,1028.80
2022-10-19T02:55:46.631Z,1028.81
2022-10-19T02:56:49.437Z,1028.79
2022-10-19T02:57:52.184Z,1028.77
2022-10-19T02:59:26.810Z,1028.77
2022-10-19T03:00:22.502Z,1028.79
2022-10-19T03:01:25.899Z,1028.78
2022-10-19T03:02:28.767Z,1028.82
2022-10-19T03:04:03.401Z,1028.86
2022-10-19T03:05:06.254Z,1028.87
2022-10-19T03:06:09.144Z,1028.89
2022-10-19T03:07:44.543Z,1028.85
2022-10-19T03:08:47.604Z,1028.81
2022-10-19T03:09:50.322Z,1028.87
2022-10-19T03:11:24.825Z,1028.79
2022-10-19T03:12:27.510Z,1028.82
2022-10-19T03:13:30.165Z,1028.87
2022-10-19T03:15:04.950Z,1028.90
2022-10-19T03:16:07.805Z,1028.94
2022-10-19T03:17:10.805Z,1028.94
2022-10-19T03:18:45.493Z,1028.98
2022-10-19T03:19:48.390Z,1028.96
2022-10-19T03:20:51.122Z,1028.96
2022-10-19T03:22:27.953Z,1028.94
2022-10-19T03:23:30.858Z,1028.91
2022-10-19T03:24:33.734Z,1028.92
2022-10-19T03:26:11.427Z,1028.90
2022-10-19T03:27:15.320Z,1028.91
2022-10-19T03:28:18.644Z,1028.92
2022-10-19T03:29:53.454Z,1028.91
2022-10-19T03:30:56.254Z,1028.87
2022-10-19T03:31:59.045Z,1028.86
2022-10-19T03:33:33.608Z,1028.90
2022-10-19T03:34:36.556Z,1028.86
2022-10-19T03:35:39.495Z,1028.90
2022-10-19T03:37:14.010Z,1028.82
2022-10-19T03:38:17.133Z,1028.83
2022-10-19T03:39:20.293Z,1028.79
2022-10-19T03:40:55.023Z,1028.80
2022-10-19T03:41:57.744Z,1028.79
2022-10-19T03:43:00.474Z,1028.76
2022-10-19T03:44:35.315Z,1028.71
2022-10-19T03:45:38.099Z,1028.71
2022-10-19T03:46:40.995Z,1028.72
2022-10-19T03:48:15.500Z,1028.69
2022-10-19T03:49:18.447Z,1028.75
2022-10-19T03:50:26.289Z,1028.73
2022-10-19T03:52:00.737Z,1028.73
2022-10-19T03:54:06.451Z,1028.78
2022-10-19T03:55:45.370Z,1028.76
2022-10-19T03:56:48.389Z,1028.81
2022-10-19T03:57:51.244Z,1028.74
2022-10-19T03:59:26.003Z,1028.78
2022-10-19T04:00:23.856Z,1028.76
2022-10-19T04:01:26.997Z,1028.74
2022-10-19T04:02:29.893Z,1028.78
2022-10-19T04:04:04.560Z,1028.68
2022-10-19T04:05:53.325Z,1028.63
2022-10-19T04:06:56.309Z,1028.62
2022-10-19T04:07:59.116Z,1028.66
2022-10-19T04:09:33.839Z,1028.60
2022-10-19T04:10:36.608Z,1028.64
2022-10-19T04:11:39.455Z,1028.69
2022-10-19T04:13:13.955Z,1028.61
2022-10-19T04:14:33.076Z,1028.64
2022-10-19T04:15:54.854Z,1028.57
2022-10-19T04:17:29.502Z,1028.60
2022-10-19T04:18:34.625Z,1028.55
2022-10-19T04:19:37.536Z,1028.55
2022-10-19T04:21:12.310Z,1028.55
2022-10-19T04:22:15.496Z,1028.49
2022-10-19T04:23:18.273Z,1028.54
2022-10-19T04:24:53.164Z,1028.58
2022-10-19T04:25:56.021Z,1028.56
2022-10-19T04:26:58.766Z,1028.60
2022-10-19T04:28:34.086Z,1028.57
2022-10-19T04:29:41.226Z,1028.55
2022-10-19T04:30:44.020Z,1028.58
2022-10-19T04:32:18.812Z,1028.56
2022-10-19T04:33:21.774Z,1028.57
2022-10-19T04:34:24.789Z,1028.52
2022-10-19T04:36:03.598Z,1028.57
2022-10-19T04:37:06.833Z,1028.52
2022-10-19T04:38:09.648Z,1028.52
2022-10-19T04:39:44.265Z,1028.56
2022-10-19T04:40:47.373Z,1028.57
2022-10-19T04:41:50.273Z,1028.55
2022-10-19T04:43:24.901Z,1028.57
2022-10-19T04:44:28.274Z,1028.55
2022-10-19T04:45:31.312Z,1028.55
2022-10-19T04:47:05.944Z,1028.60
2022-10-19T04:48:08.959Z,1028.55
2022-10-19T04:49:16.336Z,1028.49
2022-10-19T04:50:54.254Z,1028.50
2022-10-19T04:51:56.957Z,1028.50
2022-10-19T04:52:59.808Z,1028.49
2022-10-19T04:54:34.569Z,1028.49
2022-10-19T04:55:37.473Z,1028.47
2022-10-19T04:56:40.326Z,1028.42
2022-10-19T04:58:15.037Z,1028.49
2022-10-19T04:59:17.836Z,1028.52
2022-10-19T05:00:23.515Z,1028.51
2022-10-19T05:01:27.001Z,1028.46
2022-10-19T05:02:33.411Z,1028.47
2022-10-19T05:04:08.166Z,1028.44
2022-10-19T05:05:10.886Z,1028.46
2022-10-19T05:06:13.691Z,1028.44
2022-10-19T05:07:48.392Z,1028.47
2022-10-19T05:08:51.313Z,1028.49
2022-10-19T05:09:54.061Z,1028.53
2022-10-19T05:11:33.713Z,1028.49
2022-10-19T05:12:36.568Z,1028.49
2022-10-19T05:13:39.386Z,1028.53
2022-10-19T05:15:14.221Z,1028.54
2022-10-19T05:16:16.972Z,1028.55
2022-10-19T05:17:19.820Z,1028.56
2022-10-19T05:18:55.115Z,1028.53
2022-10-19T05:19:57.909Z,1028.55
2022-10-19T05:21:00.903Z,1028.57
2022-10-19T05:22:35.863Z,1028.55
2022-10-19T05:23:38.711Z,1028.58
2022-10-19T05:24:41.797Z,1028.56
2022-10-19T05:26:21.955Z,1028.59
2022-10-19T05:27:24.862Z,1028.56
2022-10-19T05:28:28.382Z,1028.63
2022-10-19T05:30:03.599Z,1028.57
2022-10-19T05:31:06.274Z,1028.55
2022-10-19T05:32:09.019Z,1028.54
2022-10-19T05:33:43.564Z,1028.53
2022-10-19T05:34:46.779Z,1028.57
2022-10-19T05:35:49.486Z,1028.58
2022-10-19T05:37:24.176Z,1028.54
2022-10-19T05:38:27.686Z,1028.54
2022-10-19T05:39:30.337Z,1028.57
2022-10-19T05:41:05.285Z,1028.59
2022-10-19T05:42:08.050Z,1028.60
2022-10-19T05:43:11.128Z,1028.58
2022-10-19T05:44:45.813Z,1028.56
2022-10-19T05:45:48.814Z,1028.56
2022-10-19T05:46:51.774Z,1028.57
2022-10-19T05:48:29.213Z,1028.54
2022-10-19T05:49:32.014Z,1028.61
2022-10-19T05:50:34.866Z,1028.58
2022-10-19T05:52:09.810Z,1028.59
2022-10-19T05:53:12.594Z,1028.67
2022-10-19T05:54:15.458Z,1028.63
2022-10-19T05:55:54.410Z,1028.69
2022-10-19T05:56:57.187Z,1028.65
2022-10-19T05:58:00.161Z,1028.67
2022-10-19T05:59:35.052Z,1028.69
2022-10-19T06:00:23.173Z,1028.69
2022-10-19T06:01:26.078Z,1028.71
2022-10-19T06:02:29.125Z,1028.73
2022-10-19T06:04:03.823Z,1028.72
2022-10-19T06:05:06.669Z,1028.67
2022-10-19T06:06:09.527Z,1028.72
2022-10-19T06:07:44.880Z,1028.69
2022-10-19T06:08:47.717Z,1028.65
2022-10-19T06:09:50.352Z,1028.67
2022-10-19T06:11:25.240Z,1028.64
2022-10-19T06:12:31.550Z,1028.61
2022-10-19T06:13:34.459Z,1028.64
2022-10-19T06:15:08.904Z,1028.64
2022-10-19T06:16:11.714Z,1028.61
2022-10-19T06:17:14.475Z,1028.62
2022-10-19T06:18:49.723Z,1028.62
2022-10-19T06:19:52.482Z,1028.63
2022-10-19T06:20:55.439Z,1028.64
2022-10-19T06:22:35.062Z,1028.66
2022-10-19T06:23:38.090Z,1028.66
2022-10-19T06:24:41.052Z,1028.63
2022-10-19T06:26:17.821Z,1028.71
2022-10-19T06:27:21.139Z,1028.70
2022-10-19T06:28:25.098Z,1028.71
2022-10-19T06:29:59.701Z,1028.77
2022-10-19T06:31:06.069Z,1028.77
2022-10-19T06:32:11.856Z,1028.78
2022-10-19T06:33:49.347Z,1028.81
2022-10-19T06:34:56.676Z,1028.82
2022-10-19T06:35:59.676Z,1028.78
2022-10-19T06:37:34.708Z,1028.77
2022-10-19T06:38:37.738Z,1028.79
2022-10-19T06:39:40.682Z,1028.78
2022-10-19T06:41:15.626Z,1028.84
2022-10-19T06:42:18.319Z,1028.83
2022-10-19T06:43:21.186Z,1028.87
2022-10-19T06:44:55.660Z,1028.90
2022-10-19T06:45:58.389Z,1028.85
2022-10-19T06:47:01.209Z,1028.84
2022-10-19T06:48:36.576Z,1028.85
2022-10-19T06:49:39.597Z,1028.79
2022-10-19T06:50:42.584Z,1028.82
2022-10-19T06:52:17.633Z,1028.85
2022-10-19T06:53:21.129Z,1028.85
2022-10-19T06:54:24.049Z,1028.85
2022-10-19T06:55:58.492Z,1028.84
2022-10-19T06:57:01.298Z,1028.87
2022-10-19T06:58:04.358Z,1028.89
2022-10-19T06:59:39.250Z,1028.93
2022-10-19T07:00:23.836Z,1028.90
2022-10-19T07:01:27.422Z,1028.90
2022-10-19T07:02:30.517Z,1028.97
2022-10-19T07:04:05.482Z,1028.98
2022-10-19T07:05:12.642Z,1028.94
2022-10-19T07:06:15.631Z,1028.95
2022-10-19T07:07:50.448Z,1028.92
2022-10-19T07:08:53.635Z,1028.91
2022-10-19T07:09:56.452Z,1028.95
2022-10-19T07:11:31.056Z,1028.89
2022-10-19T07:12:38.063Z,1028.86
2022-10-19T07:13:41.207Z,1028.83
2022-10-19T07:15:16.018Z,1028.83
2022-10-19T07:16:25.361Z,1028.80
2022-10-19T07:17:28.219Z,1028.75
2022-10-19T07:19:03.182Z,1028.74
2022-10-19T07:20:06.123Z,1028.73
2022-10-19T07:21:08.855Z,1028.72
2022-10-19T07:22:43.710Z,1028.69
2022-10-19T07:23:46.589Z,1028.71
2022-10-19T07:24:49.320Z,1028.66
2022-10-19T07:26:24.258Z,1028.67
2022-10-19T07:27:27.349Z,1028.67
2022-10-19T07:28:35.650Z,1028.75
2022-10-19T07:30:10.216Z,1028.76
2022-10-19T07:31:13.003Z,1028.76
2022-10-19T07:32:16.026Z,1028.74
2022-10-19T07:33:50.780Z,1028.77
2022-10-19T07:34:53.729Z,1028.76
2022-10-19T07:35:56.401Z,1028.70
2022-10-19T07:37:31.356Z,1028.71
2022-10-19T07:38:34.530Z,1028.70
2022-10-19T07:39:37.596Z,1028.74
2022-10-19T07:41:12.596Z,1028.68
2022-10-19T07:42:15.576Z,1028.68
2022-10-19T07:43:19.425Z,1028.72
2022-10-19T07:44:57.211Z,1028.64
2022-10-19T07:46:00.010Z,1028.67
2022-10-19T07:47:02.728Z,1028.62
2022-10-19T07:48:37.643Z,1028.65
2022-10-19T07:49:40.424Z,1028.65
2022-10-19T07:50:43.166Z,1028.69
2022-10-19T07:52:18.207Z,1028.70
2022-10-19T07:53:26.530Z,1028.72
2022-10-19T07:54:29.537Z,1028.76
2022-10-19T07:56:04.182Z,1028.78
2022-10-19T07:57:07.044Z,1028.75
2022-10-19T07:58:10.158Z,1028.74
2022-10-19T07:59:44.734Z,1028.75
2022-10-19T08:00:23.867Z,1028.75
2022-10-19T08:01:27.611Z,1028.71
2022-10-19T08:02:57.813Z,1028.70
2022-10-19T08:06:29.408Z,1028.69
2022-10-19T08:07:32.162Z,1028.73
2022-10-19T08:08:35.400Z,1028.74
2022-10-19T08:10:45.969Z,1028.79
2022-10-19T08:11:48.855Z,1028.80
2022-10-19T08:12:52.074Z,1028.80
2022-10-19T08:14:26.840Z,1028.83
2022-10-19T08:15:29.759Z,1028.80
2022-10-19T08:16:32.691Z,1028.81
2022-10-19T08:18:07.433Z,1028.78
2022-10-19T08:19:10.404Z,1028.79
2022-10-19T08:20:13.283Z,1028.80
2022-10-19T08:21:48.208Z,1028.84
2022-10-19T08:22:55.045Z,1028.88
2022-10-19T08:24:01.077Z,1028.88
2022-10-19T08:25:35.640Z,1028.93
2022-10-19T08:26:38.496Z,1028.93
2022-10-19T08:27:41.344Z,1028.90
2022-10-19T08:29:16.340Z,1028.90
2022-10-19T08:30:23.158Z,1028.88
2022-10-19T08:31:25.975Z,1028.89
2022-10-19T08:33:00.588Z,1028.84
2022-10-19T08:34:03.465Z,1028.80
2022-10-19T08:35:10.002Z,1028.74
2022-10-19T08:36:45.835Z,1028.74
2022-10-19T08:38:09.312Z,1028.72
2022-10-19T08:39:12.192Z,1028.73
2022-10-19T08:40:47.169Z,1028.73
2022-10-19T08:41:50.433Z,1028.71
2022-10-19T08:42:53.264Z,1028.74
2022-10-19T08:44:28.118Z,1028.70
2022-10-19T08:45:31.100Z,1028.75
2022-10-19T08:46:33.932Z,1028.78
2022-10-19T08:48:15.381Z,1028.81
2022-10-19T08:49:18.539Z,1028.82
2022-10-19T08:50:21.494Z,1028.77
2022-10-19T08:51:56.298Z,1028.81
2022-10-19T08:52:59.240Z,1028.78
2022-10-19T08:54:02.008Z,1028.75
2022-10-19T08:55:36.881Z,1028.73
2022-10-19T08:57:02.036Z,1028.80
2022-10-19T08:58:04.938Z,1028.78
2022-10-19T08:59:39.780Z,1028.75
2022-10-19T09:00:23.205Z,1028.74
2022-10-19T09:01:26.570Z,1028.77
2022-10-19T09:02:34.598Z,1028.79
2022-10-19T09:04:42.041Z,1028.76
2022-10-19T09:05:44.927Z,1028.74
2022-10-19T09:06:47.763Z,1028.73
2022-10-19T09:08:29.116Z,1028.67
2022-10-19T09:09:32.173Z,1028.68
2022-10-19T09:10:35.143Z,1028.67
2022-10-19T09:12:09.801Z,1028.66
2022-10-19T09:13:12.729Z,1028.64
2022-10-19T09:14:33.277Z,1028.65
2022-10-19T09:16:07.939Z,1028.60
2022-10-19T09:17:10.573Z,1028.63
2022-10-19T09:18:13.483Z,1028.56
2022-10-19T09:19:48.343Z,1028.53
2022-10-19T09:20:51.348Z,1028.53
2022-10-19T09:21:58.911Z,1028.45
2022-10-19T09:23:34.246Z,1028.40
2022-10-19T09:24:37.166Z,1028.40
2022-10-19T09:25:40.304Z,1028.34
2022-10-19T09:27:15.275Z,1028.31
2022-10-19T09:28:17.945Z,1028.30
2022-10-19T09:29:32.072Z,1028.30
2022-10-19T09:31:06.871Z,1028.32
2022-10-19T09:32:09.662Z,1028.35
2022-10-19T09:33:15.331Z,1028.33
2022-10-19T09:34:50.206Z,1028.24
2022-10-19T09:35:52.976Z,1028.24
2022-10-19T09:37:09.047Z,1028.21
2022-10-19T09:38:55.127Z,1028.23
2022-10-19T09:40:06.441Z,1028.24
2022-10-19T09:41:09.563Z,1028.16
2022-10-19T09:42:45.552Z,1028.18
2022-10-19T09:43:48.321Z,1028.15
2022-10-19T09:44:51.178Z,1028.16
2022-10-19T09:46:31.779Z,1028.13
2022-10-19T09:47:38.109Z,1028.17
2022-10-19T09:48:41.108Z,1028.09
2022-10-19T09:50:15.607Z,1028.12
2022-10-19T09:51:18.454Z,1028.07
2022-10-19T09:52:21.254Z,1028.07
2022-10-19T09:53:55.912Z,1028.10
2022-10-19T09:54:58.712Z,1028.09
2022-10-19T09:56:01.641Z,1028.05
2022-10-19T09:57:37.063Z,1028.02
2022-10-19T09:58:44.454Z,1028.00
2022-10-19T09:59:47.440Z,1028.01
2022-10-19T10:00:23.761Z,1027.96
2022-10-19T10:01:32.306Z,1027.99
2022-10-19T10:02:42.437Z,1028.03
2022-10-19T10:04:17.065Z,1027.96
2022-10-19T10:05:19.829Z,1028.00
2022-10-19T10:06:22.661Z,1027.92
2022-10-19T10:07:57.447Z,1027.97
2022-10-19T10:09:00.602Z,1027.96
2022-10-19T10:10:03.507Z,1027.95
2022-10-19T10:11:38.025Z,1027.95
2022-10-19T10:12:41.339Z,1027.91
2022-10-19T10:13:44.244Z,1027.94
2022-10-19T10:15:21.824Z,1027.95
2022-10-19T10:16:24.530Z,1027.90
2022-10-19T10:17:27.313Z,1027.92
2022-10-19T10:19:02.276Z,1027.88
2022-10-19T10:20:05.180Z,1027.89
2022-10-19T10:21:12.730Z,1027.89
2022-10-19T10:22:53.285Z,1027.89
2022-10-19T10:23:55.976Z,1027.87
2022-10-19T10:24:58.832Z,1027.88
2022-10-19T10:26:33.837Z,1027.85
2022-10-19T10:27:36.915Z,1027.85
2022-10-19T10:28:39.946Z,1027.81
2022-10-19T10:30:19.292Z,1027.77
2022-10-19T10:31:22.152Z,1027.81
2022-10-19T10:32:25.241Z,1027.79
2022-10-19T10:35:01.837Z,1027.73
2022-10-19T10:36:04.928Z,1027.69
2022-10-19T10:37:07.847Z,1027.75
2022-10-19T10:38:42.496Z,1027.65
2022-10-19T10:39:45.402Z,1027.70
2022-10-19T10:40:53.580Z,1027.72
2022-10-19T10:42:28.142Z,1027.72
2022-10-19T10:43:31.452Z,1027.72
2022-10-19T10:44:34.538Z,1027.74
2022-10-19T10:46:09.276Z,1027.67
2022-10-19T10:47:11.994Z,1027.74
2022-10-19T10:48:14.911Z,1027.75
2022-10-19T10:49:51.011Z,1027.74
2022-10-19T10:50:53.718Z,1027.71
2022-10-19T10:52:03.357Z,1027.75
2022-10-19T10:53:38.104Z,1027.69
2022-10-19T10:54:40.985Z,1027.69
2022-10-19T10:55:44.072Z,1027.67
2022-10-19T10:57:19.505Z,1027.59
2022-10-19T10:58:25.519Z,1027.57
2022-10-19T10:59:31.040Z,1027.58
2022-10-19T11:00:23.781Z,1027.56
2022-10-19T11:01:26.873Z,1027.50
2022-10-19T11:02:30.180Z,1027.48
2022-10-19T11:04:04.817Z,1027.45
2022-10-19T11:05:07.626Z,1027.39
2022-10-19T11:06:10.459Z,1027.33
2022-10-19T11:07:45.909Z,1027.39
2022-10-19T11:08:49.243Z,1027.34
2022-10-19T11:09:52.614Z,1027.33
2022-10-19T11:11:27.320Z,1027.38
2022-10-19T11:12:34.307Z,1027.33
2022-10-19T11:13:38.237Z,1027.30
2022-10-19T11:15:12.856Z,1027.29
2022-10-19T11:16:16.010Z,1027.33
2022-10-19T11:17:18.805Z,1027.33
2022-10-19T11:18:54.706Z,1027.37
2022-10-19T11:19:57.722Z,1027.41
2022-10-19T11:21:00.500Z,1027.32
2022-10-19T11:22:38.899Z,1027.45
2022-10-19T11:23:41.933Z,1027.39
2022-10-19T11:24:47.832Z,1027.29
2022-10-19T11:26:23.694Z,1027.24
2022-10-19T11:27:26.591Z,1027.25
2022-10-19T11:28:30.469Z,1027.22
2022-10-19T11:30:05.403Z,1027.21
2022-10-19T11:31:08.212Z,1027.14
2022-10-19T11:32:11.294Z,1027.14
2022-10-19T11:33:46.236Z,1027.07
2022-10-19T11:34:49.117Z,1027.04
2022-10-19T11:35:51.964Z,1027.07
2022-10-19T11:37:26.634Z,1026.99
2022-10-19T11:39:06.071Z,1026.95
2022-10-19T11:40:08.942Z,1026.90
2022-10-19T11:42:14.314Z,1026.92
2022-10-19T11:43:16.996Z,1026.87
2022-10-19T11:44:24.422Z,1026.80
2022-10-19T11:45:59.445Z,1026.86
2022-10-19T11:47:02.399Z,1026.80
2022-10-19T11:48:05.525Z,1026.77
2022-10-19T11:49:46.708Z,1026.82
2022-10-19T11:51:16.865Z,1026.79
2022-10-19T11:52:24.082Z,1026.72
2022-10-19T11:53:59.326Z,1026.75
2022-10-19T11:55:06.565Z,1026.68
2022-10-19T11:56:09.414Z,1026.69
2022-10-19T11:58:08.784Z,1026.62
2022-10-19T12:00:45.032Z,1026.56
2022-10-19T12:01:48.029Z,1026.56
2022-10-19T12:02:51.387Z,1026.53
2022-10-19T12:04:30.663Z,1026.43
2022-10-19T12:05:33.578Z,1026.36
2022-10-19T12:06:36.551Z,1026.33
2022-10-19T12:08:11.115Z,1026.30
2022-10-19T12:09:14.353Z,1026.22
2022-10-19T12:10:17.181Z,1026.20
2022-10-19T12:11:52.056Z,1026.27
2022-10-19T12:12:54.733Z,1026.24
2022-10-19T12:13:57.719Z,1026.26
2022-10-19T12:15:32.502Z,1026.19
2022-10-19T12:16:36.326Z,1026.11
2022-10-19T12:17:39.790Z,1026.11
2022-10-19T12:19:14.555Z,1026.10
2022-10-19T12:20:21.571Z,1026.10
2022-10-19T12:21:24.271Z,1026.12
2022-10-19T12:22:58.984Z,1026.12
2022-10-19T12:24:01.931Z,1026.09
2022-10-19T12:25:04.802Z,1026.10
2022-10-19T12:26:39.471Z,1026.04
2022-10-19T12:27:42.998Z,1026.09
2022-10-19T12:28:45.755Z,1026.07
2022-10-19T12:30:20.620Z,1025.95
2022-10-19T12:31:23.468Z,1025.93
2022-10-19T12:32:26.555Z,1025.94
2022-10-19T12:34:01.365Z,1025.90
2022-10-19T12:35:04.290Z,1025.89
2022-10-19T12:36:07.247Z,1025.84
2022-10-19T12:37:42.509Z,1025.78
2022-10-19T12:38:53.740Z,1025.75
2022-10-19T12:40:02.937Z,1025.77
2022-10-19T12:41:37.617Z,1025.71
2022-10-19T12:42:40.456Z,1025.69
2022-10-19T12:43:43.160Z,1025.67
2022-10-19T12:45:17.973Z,1025.65
2022-10-19T12:46:20.978Z,1025.60
2022-10-19T12:47:23.746Z,1025.56
2022-10-19T12:48:58.717Z,1025.56
2022-10-19T12:50:01.494Z,1025.54
2022-10-19T12:51:04.618Z,1025.55
2022-10-19T12:52:39.828Z,1025.52
2022-10-19T12:53:42.727Z,1025.51
2022-10-19T12:54:45.631Z,1025.48
2022-10-19T12:56:20.265Z,1025.50
2022-10-19T12:57:28.651Z,1025.49
2022-10-19T12:58:31.835Z,1025.46
2022-10-19T13:00:23.306Z,1025.45
2022-10-19T13:01:26.861Z,1025.37
2022-10-19T13:02:30.251Z,1025.39
2022-10-19T13:04:05.582Z,1025.41
2022-10-19T13:05:08.471Z,1025.34
2022-10-19T13:06:11.244Z,1025.34
2022-10-19T13:07:46.792Z,1025.35
2022-10-19T13:08:49.878Z,1025.32
2022-10-19T13:09:53.256Z,1025.29
2022-10-19T13:11:28.540Z,1025.25
2022-10-19T13:12:37.144Z,1025.27
2022-10-19T13:13:40.078Z,1025.22
2022-10-19T13:15:14.770Z,1025.21
2022-10-19T13:16:17.692Z,1025.21
2022-10-19T13:17:20.774Z,1025.24
2022-10-19T13:19:01.043Z,1025.19
2022-10-19T13:20:03.953Z,1025.18
2022-10-19T13:21:09.548Z,1025.18
2022-10-19T13:22:45.037Z,1025.14
2022-10-19T13:23:47.993Z,1025.14
2022-10-19T13:24:50.793Z,1025.11
2022-10-19T13:26:29.800Z,1025.11
2022-10-19T13:27:32.613Z,1025.07
2022-10-19T13:28:36.685Z,1025.08
2022-10-19T13:30:11.838Z,1025.01
2022-10-19T13:31:20.733Z,1024.98
2022-10-19T13:32:23.896Z,1025.02
2022-10-19T13:33:59.425Z,1024.93
2022-10-19T13:35:02.204Z,1024.99
2022-10-19T13:36:05.360Z,1024.92
2022-10-19T13:37:45.835Z,1024.90
2022-10-19T13:38:48.614Z,1024.90
2022-10-19T13:39:51.551Z,1024.88
2022-10-19T13:41:26.319Z,1024.88
2022-10-19T13:42:29.325Z,1024.86
2022-10-19T13:43:32.917Z,1024.83
2022-10-19T13:45:07.618Z,1024.79
2022-10-19T13:46:10.401Z,1024.79
2022-10-19T13:47:13.028Z,1024.82
2022-10-19T13:48:48.105Z,1024.75
2022-10-19T13:49:51.004Z,1024.78
2022-10-19T13:50:53.787Z,1024.77
2022-10-19T13:52:28.426Z,1024.73
2022-10-19T13:53:31.598Z,1024.70
2022-10-19T13:54:34.547Z,1024.70
2022-10-19T13:56:09.306Z,1024.75
2022-10-19T13:57:12.235Z,1024.72
2022-10-19T13:58:15.220Z,1024.70
2022-10-19T13:59:49.995Z,1024.69
2022-10-19T14:00:23.190Z,1024.69
2022-10-19T14:01:26.254Z,1024.67
2022-10-19T14:02:29.252Z,1024.68
2022-10-19T14:04:09.286Z,1024.62
2022-10-19T14:05:12.018Z,1024.57
2022-10-19T14:06:14.912Z,1024.61
2022-10-19T14:07:53.991Z,1024.59
2022-10-19T14:08:58.196Z,1024.58
2022-10-19T14:10:01.250Z,1024.59
2022-10-19T14:11:58.720Z,1024.54
2022-10-19T14:13:01.681Z,1024.55
2022-10-19T14:14:04.468Z,1024.56
2022-10-19T14:15:39.068Z,1024.52
2022-10-19T14:16:42.168Z,1024.52
2022-10-19T14:17:50.324Z,1024.50
2022-10-19T14:19:37.181Z,1024.50
2022-10-19T14:20:40.189Z,1024.49
2022-10-19T14:21:42.960Z,1024.49
2022-10-19T14:23:17.824Z,1024.44
2022-10-19T14:24:20.839Z,1024.43
2022-10-19T14:25:23.920Z,1024.48
2022-10-19T14:26:58.542Z,1024.42
2022-10-19T14:28:01.325Z,1024.45
2022-10-19T14:29:04.087Z,1024.44
2022-10-19T14:30:38.588Z,1024.40
2022-10-19T14:31:41.367Z,1024.38
2022-10-19T14:32:44.220Z,1024.37
2022-10-19T14:34:24.705Z,1024.41
2022-10-19T14:35:27.519Z,1024.40
2022-10-19T14:36:30.315Z,1024.39
2022-10-19T14:38:05.238Z,1024.30
2022-10-19T14:39:08.307Z,1024.34
2022-10-19T14:40:11.169Z,1024.32
2022-10-19T14:41:51.310Z,1024.34
2022-10-19T14:42:57.686Z,1024.33
2022-10-19T14:44:00.419Z,1024.43
2022-10-19T14:45:35.186Z,1024.37
2022-10-19T14:46:38.670Z,1024.35
2022-10-19T14:47:41.698Z,1024.44
2022-10-19T14:49:16.379Z,1024.41
2022-10-19T14:50:19.149Z,1024.39
2022-10-19T14:51:22.150Z,1024.38
2022-10-19T14:52:57.016Z,1024.35
2022-10-19T14:53:59.769Z,1024.34
2022-10-19T14:55:02.598Z,1024.35
2022-10-19T14:56:41.646Z,1024.31
2022-10-19T14:57:44.900Z,1024.31
2022-10-19T14:58:47.919Z,1024.27
2022-10-19T15:00:23.245Z,1024.25
2022-10-19T15:01:26.502Z,1024.20
2022-10-19T15:02:31.197Z,1024.27
2022-10-19T15:04:06.915Z,1024.20